Chelsea, Maine
Current Conditions -  °F | °C
As of 3:53 AM on Thursday 23 Oct 2014 (Local Time) from KAUG Reporting Station
Light Rain Light Rain  
Wind Chill: 37°   Ceiling: 500
Heat Index: 45°   Visibility: 3mi
Dew Point: 43°   Wind: 18mph
Humidity: 93%   Direction: 30°NNE
Pressure: 29.95"   Gusts: 29mph
Location:  44.3261°N, 69.698°W
Report Text: KAUG 230753Z AUTO 03016G25KT 3SM -RA BR OVC005 07/06 A2995 RMK AO2 PK WND 02027/0708 CIG 004V009 SLP143 P0001 T00720061
Loading
Personal Weather Stations






























Interactive Weather Map
Tropical Storm Tracking
New forecast layout! Learn more

10-Day Weather Forecast

Advertisements
Track Severe Weather on mobile